Hlavní strana
METAR-TAF:

METAR-TAF

Letiště :

Letiště Abú Simbel

Abú Simbel, Egypt

zeměpisná šířka: 22-22-33N, zeměpisná délka: 31-36-42E, výška: 188 m

Aktuální stav počasí

Zpráva byla vytvořena před 1 hodinou a 7 minutami, v 13:00 UTC
Východní vítr 5 kt
Teplota 42°C
Vlhkost vzduchu 11%
Tlak 1007 hPa
Viditelnost 10 km a více
Žádná oblačnost pod 1500 m, nevyskytují se cumulonimby.

METAR: HEBL 241300Z 08005KT CAVOK 42/05 Q1007 NOSIG

Čas: 16:07 (14:07 UTC)

Předpověď počasí

Zpráva byla vytvořena před 3 hodinami a 7 minutami, v 11:00 UTC
Předpověď platná od 24 v 12 UTC do 25 v 18 UTC
Severovýchodní vítr 14 kt
Viditelnost 10 km a více
Žádná oblačnost pod 1500 m, nevyskytují se cumulonimby.
Dočasný
od 24 v 12 UTC do 24 v 15 UTC
Viditelnost: 4000 m
písek,

TAF: HEBL 241100Z 2412/2518 05014KT CAVOK TEMPO 2412/2415 4000 SA NSC

Stav a předpovědi počasí z více než 4 000 letišť (zprávy METAR a TAF).

Červené a žluté tečky na mapě představují dostupné meteorologické stanice.

Když kurzor umístíte na tečku, zobrazí se název stanice.

Pak kliknutím zobrazíte stav a předpověď počasí.

Chcete-li změnit mapu, kliknutím na zelené tlačítko se znaménkem +mapu přiblížíte, kliknutím na zelené tlačítko se znaménkem – mapu oddálíte a kliknutím na zelené šipky přejdete na sousední mapy.


METAR-TAF: